createdAt,value
2022-11-26T00:01:47.066Z,6.75
2022-11-26T00:04:16.443Z,10.50
2022-11-26T00:06:46.108Z,2.25
2022-11-26T00:09:23.800Z,2.75
2022-11-26T00:11:53.563Z,3.25
2022-11-26T00:14:22.836Z,6.25
2022-11-26T00:16:52.299Z,5.75
2022-11-26T00:19:21.611Z,5.00
2022-11-26T00:21:50.955Z,3.75
2022-11-26T00:24:29.906Z,3.75
2022-11-26T00:27:00.556Z,4.50
2022-11-26T00:29:29.961Z,3.25
2022-11-26T00:32:00.220Z,4.75
2022-11-26T00:34:29.577Z,3.25
2022-11-26T00:36:58.942Z,2.75
2022-11-26T00:39:28.298Z,6.00
2022-11-26T00:41:57.576Z,4.25
2022-11-26T00:44:27.341Z,5.00
2022-11-26T00:46:56.650Z,3.25
2022-11-26T00:49:25.939Z,4.50
2022-11-26T00:51:55.343Z,5.00
2022-11-26T00:54:25.045Z,4.25
2022-11-26T00:56:54.419Z,3.25
2022-11-26T00:59:24.525Z,4.50
2022-11-26T01:01:53.803Z,5.25
2022-11-26T01:04:23.195Z,4.75
2022-11-26T01:06:52.729Z,4.75
2022-11-26T01:09:24.002Z,4.25
2022-11-26T01:11:54.585Z,5.00
2022-11-26T01:14:24.638Z,3.75
2022-11-26T01:16:55.208Z,5.75
2022-11-26T01:19:24.765Z,8.00
2022-11-26T01:21:54.034Z,5.00
2022-11-26T01:24:23.299Z,4.25
2022-11-26T01:26:52.578Z,3.50
2022-11-26T01:29:22.332Z,6.50
2022-11-26T01:31:51.602Z,4.00
2022-11-26T01:34:20.959Z,5.75
2022-11-26T01:36:50.243Z,4.00
2022-11-26T01:39:23.954Z,6.00
2022-11-26T01:44:58.059Z,4.25
2022-11-26T01:50:20.864Z,4.00
2022-11-26T01:55:25.699Z,6.00
2022-11-26T02:00:30.527Z,6.00
2022-11-26T02:05:40.212Z,5.25
2022-11-26T02:10:46.999Z,5.00
2022-11-26T02:16:05.317Z,4.75
2022-11-26T02:21:21.825Z,4.75
2022-11-26T02:26:44.675Z,6.25
2022-11-26T02:32:21.680Z,3.75
2022-11-26T02:37:55.761Z,5.00
2022-11-26T02:43:00.505Z,6.00
2022-11-26T02:48:08.286Z,2.25
2022-11-26T02:53:15.637Z,4.75
2022-11-26T02:58:21.239Z,5.50
2022-11-26T03:03:28.720Z,5.00
2022-11-26T03:08:34.133Z,4.75
2022-11-26T03:13:39.334Z,4.25
2022-11-26T03:18:44.554Z,4.00
2022-11-26T03:23:50.148Z,3.50
2022-11-26T03:28:55.271Z,3.00
2022-11-26T03:34:00.630Z,2.25
2022-11-26T03:39:06.635Z,3.00
2022-11-26T03:44:15.132Z,2.00
2022-11-26T03:49:21.390Z,5.25
2022-11-26T03:54:27.067Z,2.50
2022-11-26T03:59:32.419Z,4.25
2022-11-26T04:04:39.099Z,4.00
2022-11-26T04:09:44.745Z,4.00
2022-11-26T04:14:50.294Z,4.00
2022-11-26T04:19:56.556Z,3.00
2022-11-26T04:25:01.881Z,6.50
2022-11-26T04:30:08.331Z,4.50
2022-11-26T04:35:13.683Z,5.50
2022-11-26T04:40:21.724Z,5.00
2022-11-26T04:45:28.907Z,4.50
2022-11-26T04:50:34.423Z,5.50
2022-11-26T04:55:39.618Z,6.00
2022-11-26T05:00:50.230Z,6.00
2022-11-26T05:05:55.966Z,6.00
2022-11-26T05:11:03.036Z,4.25
2022-11-26T05:16:08.535Z,5.25
2022-11-26T05:21:13.716Z,4.50
2022-11-26T05:26:19.339Z,5.00
2022-11-26T05:31:25.246Z,6.25
2022-11-26T05:36:32.006Z,2.50
2022-11-26T05:41:37.272Z,3.00
2022-11-26T05:46:43.886Z,2.50
2022-11-26T05:51:50.320Z,4.50
2022-11-26T05:57:00.102Z,2.75
2022-11-26T06:02:08.903Z,2.50
2022-11-26T06:07:14.439Z,3.75
2022-11-26T06:12:21.105Z,4.00
2022-11-26T06:17:26.861Z,5.00
2022-11-26T06:22:32.322Z,3.00
2022-11-26T06:27:38.178Z,3.00
2022-11-26T06:32:43.610Z,3.75
2022-11-26T06:37:48.862Z,2.25
2022-11-26T06:42:54.499Z,5.00
2022-11-26T06:48:00.894Z,3.50
2022-11-26T06:53:07.542Z,2.00
2022-11-26T06:58:13.274Z,3.00
2022-11-26T07:03:23.521Z,5.50
2022-11-26T07:08:29.788Z,2.00
2022-11-26T07:13:35.702Z,2.75
2022-11-26T07:18:41.104Z,3.25
2022-11-26T07:23:46.960Z,3.00
2022-11-26T07:28:52.258Z,3.00
2022-11-26T07:34:01.229Z,2.00
2022-11-26T07:39:06.756Z,3.00
2022-11-26T07:44:15.619Z,3.00
2022-11-26T07:49:20.553Z,3.00
2022-11-26T07:54:25.695Z,3.00
2022-11-26T07:59:30.779Z,2.00
2022-11-26T08:04:37.560Z,3.00
2022-11-26T08:09:42.962Z,3.75
2022-11-26T08:14:48.295Z,3.75
2022-11-26T08:19:53.604Z,7.25
2022-11-26T08:24:58.821Z,4.25
2022-11-26T08:30:04.453Z,4.50
2022-11-26T08:35:10.127Z,4.50
2022-11-26T08:40:16.795Z,5.25
2022-11-26T08:45:21.666Z,6.00
2022-11-26T08:50:27.425Z,4.50
2022-11-26T08:55:53.617Z,4.50
2022-11-26T09:00:58.265Z,5.25
2022-11-26T09:06:07.288Z,7.00
2022-11-26T09:11:16.746Z,5.50
2022-11-26T09:16:22.451Z,6.50
2022-11-26T09:21:27.698Z,6.50
2022-11-26T09:26:33.521Z,6.25
2022-11-26T09:31:55.074Z,9.50
2022-11-26T09:37:05.189Z,9.00
2022-11-26T09:42:16.553Z,6.00
2022-11-26T09:47:24.083Z,7.50
2022-11-26T09:52:52.633Z,8.50
2022-11-26T09:58:09.935Z,7.00
2022-11-26T10:03:16.880Z,8.75
2022-11-26T10:08:39.605Z,7.25
2022-11-26T10:13:52.652Z,7.75
2022-11-26T10:19:01.042Z,8.00
2022-11-26T10:24:08.224Z,6.00
2022-11-26T10:29:13.258Z,8.25
2022-11-26T10:34:41.390Z,6.25
2022-11-26T10:39:47.125Z,10.25
2022-11-26T10:44:53.394Z,7.25
2022-11-26T10:50:45.907Z,9.50
2022-11-26T10:55:43.618Z,9.75
2022-11-26T11:00:52.339Z,7.00
2022-11-26T11:06:36.157Z,11.00
2022-11-26T11:11:41.462Z,7.25
2022-11-26T11:16:48.426Z,8.25
2022-11-26T11:21:54.043Z,5.50
2022-11-26T11:27:02.612Z,6.75
2022-11-26T11:32:09.095Z,7.25
2022-11-26T11:37:18.518Z,4.75
2022-11-26T11:42:32.571Z,6.75
2022-11-26T11:47:45.183Z,6.75
2022-11-26T11:53:02.388Z,6.00
2022-11-26T11:58:13.625Z,7.25
2022-11-26T12:03:29.487Z,9.25
2022-11-26T12:08:38.207Z,5.25
2022-11-26T12:13:48.225Z,6.25
2022-11-26T12:19:21.265Z,8.75
2022-11-26T12:24:42.409Z,5.75
2022-11-26T12:29:54.737Z,3.50
2022-11-26T12:35:01.362Z,6.75
2022-11-26T12:40:06.188Z,7.25
2022-11-26T12:45:32.332Z,5.00
2022-11-26T12:50:51.495Z,6.75
2022-11-26T12:55:59.234Z,5.25
2022-11-26T13:01:03.888Z,7.00
2022-11-26T13:06:15.452Z,7.00
2022-11-26T13:11:20.221Z,7.25
2022-11-26T13:16:31.270Z,7.25
2022-11-26T13:21:53.115Z,5.50
2022-11-26T13:27:07.762Z,5.00
2022-11-26T13:32:19.581Z,4.50
2022-11-26T13:37:49.105Z,2.50
2022-11-26T13:42:57.096Z,3.00
2022-11-26T13:48:05.082Z,8.00
2022-11-26T13:53:19.460Z,3.75
2022-11-26T13:58:31.032Z,3.50
2022-11-26T14:03:50.443Z,3.25
2022-11-26T14:08:56.461Z,4.50
2022-11-26T14:14:19.451Z,6.25
2022-11-26T14:19:25.025Z,3.50
2022-11-26T14:24:49.551Z,5.00
2022-11-26T14:30:10.054Z,7.25
2022-11-26T14:35:26.945Z,8.25
2022-11-26T14:40:37.383Z,5.25
2022-11-26T14:45:44.194Z,5.00
2022-11-26T14:50:49.266Z,6.25
2022-11-26T14:55:54.379Z,5.50
2022-11-26T15:01:10.195Z,5.50
2022-11-26T15:06:29.423Z,4.50
2022-11-26T15:11:34.396Z,6.00
2022-11-26T15:16:42.884Z,6.75
2022-11-26T15:21:47.701Z,6.75
2022-11-26T15:26:52.556Z,6.75
2022-11-26T15:31:57.243Z,7.50
2022-11-26T15:37:02.952Z,7.75
2022-11-26T15:42:12.328Z,5.50
2022-11-26T15:47:25.611Z,6.50
2022-11-26T15:52:35.275Z,4.25
2022-11-26T15:57:42.167Z,8.75
2022-11-26T16:02:46.937Z,5.00
2022-11-26T16:07:58.655Z,4.75
2022-11-26T16:13:18.982Z,6.50
2022-11-26T16:18:26.068Z,5.75
2022-11-26T16:23:31.525Z,6.25
2022-11-26T16:28:36.286Z,7.75
2022-11-26T16:33:41.152Z,5.50
2022-11-26T16:38:46.013Z,9.00
2022-11-26T16:43:51.211Z,8.75
2022-11-26T16:48:55.907Z,7.25
2022-11-26T16:54:00.473Z,7.00
2022-11-26T16:59:05.798Z,7.00
2022-11-26T17:04:10.482Z,9.00
2022-11-26T17:09:21.424Z,5.75
2022-11-26T17:14:26.074Z,8.25
2022-11-26T17:19:30.608Z,8.00
2022-11-26T17:24:38.021Z,8.00
2022-11-26T17:29:43.135Z,6.50
2022-11-26T17:34:50.805Z,6.75
2022-11-26T17:39:56.454Z,5.00
2022-11-26T17:45:00.959Z,4.50
2022-11-26T17:50:06.477Z,7.75
2022-11-26T17:55:11.869Z,7.75
2022-11-26T18:00:19.123Z,4.50
2022-11-26T18:05:24.225Z,6.25
2022-11-26T18:10:28.964Z,5.50
2022-11-26T18:15:33.429Z,5.75
2022-11-26T18:20:38.361Z,7.00
2022-11-26T18:25:43.227Z,5.25
2022-11-26T18:30:48.721Z,4.25
2022-11-26T18:35:53.587Z,6.50
2022-11-26T18:41:06.622Z,7.00
2022-11-26T18:46:16.708Z,6.50
2022-11-26T18:51:21.360Z,4.50
2022-11-26T18:56:26.197Z,4.25
2022-11-26T19:01:32.766Z,5.50
2022-11-26T19:06:37.681Z,5.00
2022-11-26T19:11:42.163Z,4.75
2022-11-26T19:16:49.615Z,4.25
2022-11-26T19:22:00.421Z,5.25
2022-11-26T19:27:05.753Z,6.00
2022-11-26T19:32:10.652Z,5.00
2022-11-26T19:37:15.465Z,3.00
2022-11-26T19:42:20.245Z,2.75
2022-11-26T19:47:24.550Z,5.50
2022-11-26T19:52:29.375Z,3.50
2022-11-26T19:57:34.188Z,6.25
2022-11-26T20:02:39.445Z,4.50
2022-11-26T20:07:46.472Z,4.50
2022-11-26T20:12:51.413Z,5.00
2022-11-26T20:17:56.228Z,5.50
2022-11-26T20:23:01.135Z,4.00
2022-11-26T20:28:06.713Z,3.00
2022-11-26T20:33:11.609Z,5.00
2022-11-26T20:38:16.695Z,4.00
2022-11-26T20:43:21.068Z,3.00
2022-11-26T20:48:25.859Z,3.75
2022-11-26T20:53:30.966Z,4.00
2022-11-26T20:58:36.664Z,4.00
2022-11-26T21:03:41.635Z,3.75
2022-11-26T21:08:46.712Z,3.50
2022-11-26T21:13:51.309Z,4.00
2022-11-26T21:18:56.004Z,4.25
2022-11-26T21:24:01.277Z,5.50
2022-11-26T21:29:06.130Z,4.50
2022-11-26T21:34:12.621Z,5.00
2022-11-26T21:39:18.241Z,3.00
2022-11-26T21:44:22.718Z,5.00
2022-11-26T21:49:29.455Z,5.00
2022-11-26T21:54:34.246Z,6.25
2022-11-26T21:59:39.185Z,2.00
2022-11-26T22:04:44.315Z,5.75
2022-11-26T22:09:50.166Z,4.25
2022-11-26T22:14:54.949Z,3.00
2022-11-26T22:19:59.652Z,2.25
2022-11-26T22:25:04.277Z,3.25
2022-11-26T22:30:09.380Z,4.00
2022-11-26T22:35:14.087Z,4.50
2022-11-26T22:40:18.746Z,2.00
2022-11-26T22:45:24.542Z,4.25
2022-11-26T22:50:29.251Z,3.00
2022-11-26T22:55:33.911Z,3.00
2022-11-26T23:00:52.472Z,2.00
2022-11-26T23:05:57.235Z,3.50
2022-11-26T23:11:07.244Z,4.75
2022-11-26T23:16:12.710Z,2.75
2022-11-26T23:21:28.119Z,1.25
2022-11-26T23:26:34.454Z,1.50
2022-11-26T23:31:40.679Z,12.25
2022-11-26T23:36:45.428Z,4.75
2022-11-26T23:41:50.203Z,5.75
2022-11-26T23:46:54.989Z,6.75
2022-11-26T23:51:59.701Z,16.25
2022-11-26T23:57:04.544Z,28.25
